createdAt,value
2018-08-09T00:01:29.991Z,68.97
2018-08-09T00:03:59.076Z,69.67
2018-08-09T00:06:28.234Z,69.72
2018-08-09T00:08:57.405Z,69.37
2018-08-09T00:11:26.786Z,69.85
2018-08-09T00:13:58.129Z,69.75
2018-08-09T00:16:27.373Z,70.46
2018-08-09T00:18:56.461Z,70.26
2018-08-09T00:21:25.293Z,70.90
2018-08-09T00:23:54.385Z,70.43
2018-08-09T00:26:23.487Z,71.21
2018-08-09T00:28:52.655Z,71.15
2018-08-09T00:31:21.476Z,71.13
2018-08-09T00:33:51.940Z,71.34
2018-08-09T00:36:20.906Z,71.79
2018-08-09T00:38:53.085Z,71.97
2018-08-09T00:41:22.240Z,71.71
2018-08-09T00:43:51.129Z,71.97
2018-08-09T00:46:19.920Z,72.59
2018-08-09T00:48:48.687Z,72.20
2018-08-09T00:51:17.662Z,72.57
2018-08-09T00:53:46.593Z,72.84
2018-08-09T00:56:15.413Z,72.55
2018-08-09T00:58:44.300Z,72.81
2018-08-09T01:01:13.613Z,72.91
2018-08-09T01:03:42.415Z,72.67
2018-08-09T01:06:11.488Z,72.82
2018-08-09T01:08:44.386Z,72.61
2018-08-09T01:11:13.183Z,73.50
2018-08-09T01:13:41.980Z,73.50
2018-08-09T01:16:10.832Z,73.54
2018-08-09T01:18:39.662Z,73.28
2018-08-09T01:21:08.537Z,73.85
2018-08-09T01:23:37.429Z,73.75
2018-08-09T01:26:06.206Z,73.50
2018-08-09T01:28:35.034Z,73.93
2018-08-09T01:31:03.866Z,74.24
2018-08-09T01:33:33.133Z,74.56
2018-08-09T01:36:02.134Z,74.42
2018-08-09T01:38:31.028Z,75.05
2018-08-09T01:40:59.883Z,74.87
2018-08-09T01:43:39.698Z,75.33
2018-08-09T01:46:08.833Z,75.61
2018-08-09T01:48:37.617Z,76.12
2018-08-09T01:51:06.544Z,75.96
2018-08-09T01:53:35.346Z,75.89
2018-08-09T01:56:04.190Z,76.37
2018-08-09T01:58:32.949Z,76.52
2018-08-09T02:01:01.778Z,76.74
2018-08-09T02:03:30.555Z,77.46
2018-08-09T02:05:59.645Z,77.78
2018-08-09T02:08:28.353Z,77.89
2018-08-09T02:10:57.206Z,78.59
2018-08-09T02:13:26.000Z,78.73
2018-08-09T02:15:54.856Z,78.42
2018-08-09T02:18:23.681Z,79.03
2018-08-09T02:20:52.936Z,79.39
2018-08-09T02:23:21.605Z,79.26
2018-08-09T02:25:50.660Z,79.39
2018-08-09T02:28:19.514Z,79.49
2018-08-09T02:30:48.307Z,80.09
2018-08-09T02:33:17.226Z,80.54
2018-08-09T02:35:46.169Z,80.07
2018-08-09T02:38:15.082Z,80.79
2018-08-09T02:40:43.912Z,80.78
2018-08-09T02:43:12.917Z,80.74
2018-08-09T02:45:41.762Z,81.46
2018-08-09T02:48:10.510Z,81.36
2018-08-09T02:50:39.352Z,81.71
2018-08-09T02:53:09.394Z,81.89
2018-08-09T02:55:39.491Z,81.90
2018-08-09T02:58:08.759Z,82.26
2018-08-09T03:00:37.532Z,82.47
2018-08-09T03:03:06.306Z,82.46
2018-08-09T03:05:35.507Z,82.79
2018-08-09T03:08:04.469Z,83.22
2018-08-09T03:10:37.023Z,83.28
2018-08-09T03:13:05.734Z,83.52
2018-08-09T03:15:34.609Z,83.68
2018-08-09T03:18:03.418Z,83.88
2018-08-09T03:20:32.409Z,84.20
2018-08-09T03:23:01.213Z,84.42
2018-08-09T03:25:30.197Z,83.79
2018-08-09T03:27:58.993Z,83.95
2018-08-09T03:30:31.813Z,83.89
2018-08-09T03:33:01.062Z,84.34
2018-08-09T03:35:30.202Z,84.44
2018-08-09T03:37:59.306Z,84.58
2018-08-09T03:40:29.049Z,84.83
2018-08-09T03:42:58.173Z,84.82
2018-08-09T03:45:27.254Z,85.24
2018-08-09T03:47:56.214Z,85.30
2018-08-09T03:50:25.031Z,85.22
2018-08-09T03:52:53.861Z,85.49
2018-08-09T03:55:22.612Z,85.47
2018-08-09T03:57:51.373Z,85.66
2018-08-09T04:00:20.178Z,85.98
2018-08-09T04:02:49.382Z,86.69
2018-08-09T04:05:18.181Z,86.32
2018-08-09T04:07:47.037Z,86.09
2018-08-09T04:10:16.076Z,86.73
2018-08-09T04:12:45.339Z,86.92
2018-08-09T04:15:14.104Z,87.11
2018-08-09T04:17:43.349Z,86.82
2018-08-09T04:20:12.296Z,86.64
2018-08-09T04:22:41.279Z,86.73
2018-08-09T04:25:10.406Z,87.03
2018-08-09T04:27:39.297Z,86.99
2018-08-09T04:30:08.249Z,87.30
2018-08-09T04:32:37.181Z,87.40
2018-08-09T04:35:06.139Z,87.07
2018-08-09T04:37:35.057Z,87.03
2018-08-09T04:40:03.890Z,87.45
2018-08-09T04:42:32.685Z,87.22
2018-08-09T04:45:01.894Z,87.17
2018-08-09T04:47:30.710Z,87.54
2018-08-09T04:49:59.617Z,87.23
2018-08-09T04:52:28.510Z,87.03
2018-08-09T04:54:57.357Z,87.19
2018-08-09T04:57:26.167Z,87.51
2018-08-09T04:59:55.092Z,87.55
2018-08-09T05:02:24.151Z,87.03
2018-08-09T05:04:53.094Z,87.04
2018-08-09T05:07:22.072Z,86.66
2018-08-09T05:09:51.600Z,86.27
2018-08-09T05:12:21.452Z,86.17
2018-08-09T05:14:50.197Z,86.12
2018-08-09T05:17:19.018Z,86.18
2018-08-09T05:19:48.541Z,85.93
2018-08-09T05:22:17.347Z,85.54
2018-08-09T05:24:46.231Z,84.93
2018-08-09T05:27:15.193Z,85.04
2018-08-09T05:29:43.971Z,84.42
2018-08-09T05:32:13.154Z,84.02
2018-08-09T05:34:41.951Z,84.03
2018-08-09T05:37:10.797Z,83.43
2018-08-09T05:39:39.923Z,83.36
2018-08-09T05:42:08.979Z,82.34
2018-08-09T05:44:37.736Z,82.23
2018-08-09T05:47:06.888Z,81.82
2018-08-09T05:49:35.820Z,81.35
2018-08-09T05:52:04.643Z,80.62
2018-08-09T05:54:33.568Z,80.21
2018-08-09T05:57:02.374Z,80.34
2018-08-09T05:59:31.141Z,79.59
2018-08-09T06:02:00.030Z,79.44
2018-08-09T06:04:28.849Z,78.99
2018-08-09T06:06:57.573Z,78.06
2018-08-09T06:09:26.428Z,77.51
2018-08-09T06:11:55.285Z,77.07
2018-08-09T06:14:24.205Z,76.44
2018-08-09T06:16:53.071Z,75.93
2018-08-09T06:19:21.881Z,75.78
2018-08-09T06:21:50.703Z,75.36
2018-08-09T06:24:19.576Z,74.74
2018-08-09T06:26:48.435Z,73.87
2018-08-09T06:29:17.189Z,74.01
2018-08-09T06:31:45.943Z,73.90
2018-08-09T06:34:14.830Z,73.90
2018-08-09T06:36:43.713Z,73.40
2018-08-09T06:39:12.581Z,72.62
2018-08-09T06:41:41.357Z,71.87
2018-08-09T06:44:10.301Z,71.24
2018-08-09T06:46:39.230Z,70.95
2018-08-09T06:49:08.174Z,70.09
2018-08-09T06:51:36.977Z,69.35
2018-08-09T06:54:05.866Z,69.16
2018-08-09T06:56:34.650Z,68.62
2018-08-09T06:59:03.705Z,68.21
2018-08-09T07:01:32.587Z,68.34
2018-08-09T07:04:01.399Z,68.24
2018-08-09T07:06:30.186Z,67.30
2018-08-09T07:08:59.074Z,67.14
2018-08-09T07:11:27.811Z,67.61
2018-08-09T07:13:56.582Z,67.39
2018-08-09T07:16:25.392Z,67.95
2018-08-09T07:18:54.235Z,66.95
2018-08-09T07:21:22.978Z,66.08
2018-08-09T07:23:51.825Z,65.73
2018-08-09T07:26:20.734Z,65.63
2018-08-09T07:28:49.666Z,65.33
2018-08-09T07:31:18.423Z,65.12
2018-08-09T07:33:47.209Z,65.30
2018-08-09T07:36:16.017Z,65.34
2018-08-09T07:38:44.793Z,64.77
2018-08-09T07:41:13.556Z,64.59
2018-08-09T07:43:42.398Z,64.13
2018-08-09T07:46:11.256Z,63.12
2018-08-09T07:48:40.247Z,62.62
2018-08-09T07:51:09.139Z,62.75
2018-08-09T07:53:38.118Z,60.98
2018-08-09T07:56:06.878Z,59.82
2018-08-09T07:58:35.714Z,58.52
2018-08-09T08:01:04.472Z,58.47
2018-08-09T08:03:33.295Z,55.94
2018-08-09T08:06:02.108Z,54.75
2018-08-09T08:08:31.017Z,54.48
2018-08-09T08:10:59.938Z,54.14
2018-08-09T08:13:28.650Z,54.55
2018-08-09T08:15:57.531Z,54.26
2018-08-09T08:18:26.316Z,54.09
2018-08-09T08:20:55.113Z,54.19
2018-08-09T08:23:24.977Z,54.10
2018-08-09T08:25:53.832Z,54.18
2018-08-09T08:28:22.607Z,52.77
2018-08-09T08:30:51.348Z,53.40
2018-08-09T08:33:21.242Z,52.93
2018-08-09T08:35:50.169Z,52.92
2018-08-09T08:38:19.430Z,52.78
2018-08-09T08:40:48.758Z,51.04
2018-08-09T08:43:18.894Z,50.12
2018-08-09T08:45:47.961Z,50.09
2018-08-09T08:48:16.731Z,47.68
2018-08-09T08:50:45.732Z,47.22
2018-08-09T08:53:15.675Z,46.00
2018-08-09T08:55:44.433Z,44.60
2018-08-09T08:58:15.572Z,43.87
2018-08-09T09:00:45.242Z,44.01
2018-08-09T09:03:14.505Z,43.90
2018-08-09T09:05:44.890Z,44.62
2018-08-09T09:08:13.904Z,44.54
2018-08-09T09:10:43.301Z,44.23
2018-08-09T09:13:19.306Z,43.56
2018-08-09T09:15:48.154Z,41.22
2018-08-09T09:18:19.246Z,40.51
2018-08-09T09:20:48.525Z,39.75
2018-08-09T09:23:26.697Z,40.86
2018-08-09T09:25:57.388Z,42.01
2018-08-09T09:28:33.226Z,42.24
2018-08-09T09:31:02.832Z,43.74
2018-08-09T09:33:33.689Z,43.86
2018-08-09T09:36:02.789Z,43.74
2018-08-09T09:38:31.563Z,44.33
2018-08-09T09:41:00.526Z,43.41
2018-08-09T09:43:30.857Z,43.15
2018-08-09T09:45:59.817Z,41.92
2018-08-09T09:48:28.937Z,42.39
2018-08-09T09:51:00.373Z,40.48
2018-08-09T09:53:46.605Z,40.07
2018-08-09T09:56:15.492Z,41.22
2018-08-09T09:58:44.430Z,40.53
2018-08-09T10:01:19.177Z,41.11
2018-08-09T10:03:56.379Z,41.22
2018-08-09T10:06:25.242Z,41.08
2018-08-09T10:08:55.112Z,42.13
2018-08-09T10:11:24.009Z,41.70
2018-08-09T10:13:58.493Z,41.58
2018-08-09T10:16:27.609Z,41.45
2018-08-09T10:18:57.329Z,40.46
2018-08-09T10:21:26.118Z,40.92
2018-08-09T10:23:54.950Z,39.95
2018-08-09T10:26:23.768Z,39.97
2018-08-09T10:28:52.623Z,40.02
2018-08-09T10:31:21.632Z,40.86
2018-08-09T10:33:50.491Z,41.35
2018-08-09T10:36:19.268Z,42.20
2018-08-09T10:38:48.040Z,42.86
2018-08-09T10:41:16.926Z,42.53
2018-08-09T10:43:50.897Z,43.42
2018-08-09T10:46:19.720Z,44.32
2018-08-09T10:48:48.561Z,43.90
2018-08-09T10:51:17.340Z,43.86
2018-08-09T10:53:49.282Z,44.40
2018-08-09T10:56:18.176Z,44.80
2018-08-09T10:58:46.986Z,44.11
2018-08-09T11:01:16.220Z,43.46
2018-08-09T11:03:47.269Z,41.96
2018-08-09T11:06:16.520Z,41.23
2018-08-09T11:08:45.347Z,41.40
2018-08-09T11:11:15.489Z,39.99
2018-08-09T11:13:45.683Z,39.65
2018-08-09T11:16:15.505Z,37.96
2018-08-09T11:18:45.280Z,37.49
2018-08-09T11:21:14.530Z,35.94
2018-08-09T11:23:43.454Z,35.99
2018-08-09T11:26:20.325Z,35.30
2018-08-09T11:28:49.093Z,34.02
2018-08-09T11:31:17.948Z,35.03
2018-08-09T11:33:46.721Z,34.39
2018-08-09T11:36:15.521Z,34.38
2018-08-09T11:38:44.277Z,35.51
2018-08-09T11:41:13.562Z,35.86
2018-08-09T11:43:42.294Z,36.13
2018-08-09T11:46:11.446Z,36.78
2018-08-09T11:48:40.291Z,37.45
2018-08-09T11:51:12.187Z,38.68
2018-08-09T11:53:41.037Z,38.64
2018-08-09T11:56:19.095Z,37.72
2018-08-09T11:58:47.835Z,38.71
2018-08-09T12:01:16.608Z,37.29
2018-08-09T12:03:45.401Z,37.86
2018-08-09T12:06:16.257Z,37.00
2018-08-09T12:08:45.049Z,35.74
2018-08-09T12:11:14.861Z,36.45
2018-08-09T12:13:44.704Z,35.36
2018-08-09T12:16:13.955Z,35.63
2018-08-09T12:18:43.052Z,34.48
2018-08-09T12:21:11.943Z,34.66
2018-08-09T12:23:40.794Z,34.02
2018-08-09T12:26:20.274Z,34.23
2018-08-09T12:28:49.123Z,33.76
2018-08-09T12:31:22.773Z,33.91
2018-08-09T12:33:51.953Z,33.87
2018-08-09T12:36:28.706Z,34.21
2018-08-09T12:38:57.714Z,33.38
2018-08-09T12:41:26.927Z,32.08
2018-08-09T12:43:55.929Z,31.77
2018-08-09T12:46:33.607Z,31.87
2018-08-09T12:49:02.507Z,30.93
2018-08-09T12:51:31.427Z,32.26
2018-08-09T12:54:00.224Z,32.44
2018-08-09T12:56:29.845Z,32.65
2018-08-09T12:58:59.059Z,33.45
2018-08-09T13:01:27.910Z,33.54
2018-08-09T13:03:56.650Z,33.58
2018-08-09T13:06:42.841Z,34.82
2018-08-09T13:09:12.447Z,35.39
2018-08-09T13:11:41.919Z,35.75
2018-08-09T13:14:10.757Z,37.09
2018-08-09T13:16:39.632Z,37.63
2018-08-09T13:19:08.760Z,38.51
2018-08-09T13:21:40.941Z,38.67
2018-08-09T13:24:09.673Z,39.12
2018-08-09T13:26:38.821Z,40.33
2018-08-09T13:29:07.632Z,40.42
2018-08-09T13:31:36.478Z,41.35
2018-08-09T13:34:05.438Z,42.61
2018-08-09T13:36:35.302Z,44.04
2018-08-09T13:39:05.190Z,44.78
2018-08-09T13:41:33.917Z,45.85
2018-08-09T13:44:02.722Z,45.91
2018-08-09T13:46:31.519Z,48.58
2018-08-09T13:49:00.273Z,47.70
2018-08-09T13:51:29.090Z,47.13
2018-08-09T13:53:57.861Z,46.39
2018-08-09T13:56:47.096Z,46.57
2018-08-09T13:59:16.113Z,46.40
2018-08-09T14:01:44.962Z,47.03
2018-08-09T14:04:13.871Z,47.47
2018-08-09T14:06:42.638Z,48.42
2018-08-09T14:09:13.778Z,48.56
2018-08-09T14:11:43.319Z,49.79
2018-08-09T14:14:12.708Z,51.09
2018-08-09T14:16:45.766Z,52.54
2018-08-09T14:19:14.689Z,54.33
2018-08-09T14:21:43.445Z,59.61
2018-08-09T14:24:12.247Z,67.20
2018-08-09T14:26:43.117Z,74.58
2018-08-09T14:29:11.925Z,78.24
2018-08-09T14:31:40.710Z,79.70
2018-08-09T14:34:09.455Z,80.87
2018-08-09T14:36:41.829Z,81.15
2018-08-09T14:39:11.753Z,81.37
2018-08-09T14:41:40.537Z,81.94
2018-08-09T14:44:09.704Z,82.56
2018-08-09T14:46:45.834Z,83.29
2018-08-09T14:49:14.594Z,83.46
2018-08-09T14:51:43.359Z,84.50
2018-08-09T14:54:12.202Z,85.73
2018-08-09T14:56:43.130Z,85.91
2018-08-09T14:59:12.141Z,85.69
2018-08-09T15:01:40.989Z,85.07
2018-08-09T15:04:09.961Z,85.51
2018-08-09T15:06:38.746Z,85.69
2018-08-09T15:09:09.934Z,85.85
2018-08-09T15:11:38.721Z,85.58
2018-08-09T15:14:08.853Z,85.66
2018-08-09T15:16:37.659Z,85.37
2018-08-09T15:19:06.545Z,86.31
2018-08-09T15:21:35.489Z,85.49
2018-08-09T15:24:04.445Z,85.03
2018-08-09T15:26:33.267Z,84.87
2018-08-09T15:29:02.103Z,84.89
2018-08-09T15:31:30.898Z,84.72
2018-08-09T15:33:59.849Z,82.87
2018-08-09T15:36:28.734Z,82.73
2018-08-09T15:38:57.526Z,82.45
2018-08-09T15:41:26.316Z,81.14
2018-08-09T15:43:55.212Z,81.29
2018-08-09T15:46:24.028Z,80.48
2018-08-09T15:48:53.330Z,79.44
2018-08-09T15:51:22.064Z,79.58
2018-08-09T15:53:50.876Z,79.21
2018-08-09T15:56:19.658Z,78.00
2018-08-09T15:58:48.474Z,76.96
2018-08-09T16:01:17.206Z,74.60
2018-08-09T16:03:46.169Z,67.90
2018-08-09T16:06:14.969Z,57.56
2018-08-09T16:08:43.765Z,55.53
2018-08-09T16:11:12.589Z,48.15
2018-08-09T16:13:41.501Z,42.78
2018-08-09T16:16:10.428Z,43.90
2018-08-09T16:18:39.144Z,43.47
2018-08-09T16:21:08.017Z,44.04
2018-08-09T16:23:36.830Z,44.79
2018-08-09T16:26:05.643Z,47.10
2018-08-09T16:28:34.498Z,47.63
2018-08-09T16:31:03.453Z,49.99
2018-08-09T16:33:32.303Z,48.64
2018-08-09T16:36:01.115Z,48.96
2018-08-09T16:38:29.896Z,45.16
2018-08-09T16:40:58.829Z,42.73
2018-08-09T16:43:27.749Z,41.96
2018-08-09T16:45:56.781Z,41.84
2018-08-09T16:48:25.661Z,41.36
2018-08-09T16:50:54.503Z,40.46
2018-08-09T16:53:23.281Z,39.41
2018-08-09T16:55:52.119Z,40.75
2018-08-09T16:58:20.860Z,41.41
2018-08-09T17:00:49.740Z,42.90
2018-08-09T17:03:18.551Z,43.48
2018-08-09T17:05:47.481Z,43.81
2018-08-09T17:08:19.806Z,46.45
2018-08-09T17:10:48.768Z,46.91
2018-08-09T17:13:18.667Z,44.31
2018-08-09T17:15:47.590Z,43.78
2018-08-09T17:18:16.498Z,45.95
2018-08-09T17:20:45.376Z,47.12
2018-08-09T17:23:14.262Z,48.07
2018-08-09T17:25:43.060Z,46.90
2018-08-09T17:28:11.975Z,45.21
2018-08-09T17:30:40.885Z,45.70
2018-08-09T17:33:09.811Z,45.93
2018-08-09T17:35:38.643Z,45.75
2018-08-09T17:38:08.161Z,46.37
2018-08-09T17:40:37.284Z,47.33
2018-08-09T17:43:06.175Z,49.72
2018-08-09T17:45:35.806Z,51.26
2018-08-09T17:48:08.494Z,50.58
2018-08-09T17:50:37.418Z,50.12
2018-08-09T17:53:07.534Z,51.45
2018-08-09T17:55:36.422Z,51.94
2018-08-09T17:58:05.470Z,52.31
2018-08-09T18:00:35.561Z,54.05
2018-08-09T18:03:04.514Z,54.95
2018-08-09T18:05:33.519Z,55.53
2018-08-09T18:08:02.438Z,56.22
2018-08-09T18:10:33.956Z,56.15
2018-08-09T18:13:02.788Z,57.64
2018-08-09T18:15:32.228Z,57.92
2018-08-09T18:18:02.006Z,59.33
2018-08-09T18:20:33.446Z,60.46
2018-08-09T18:23:02.342Z,60.72
2018-08-09T18:25:31.400Z,61.66
2018-08-09T18:28:00.337Z,62.65
2018-08-09T18:30:29.302Z,63.55
2018-08-09T18:32:58.328Z,64.07
2018-08-09T18:35:27.198Z,65.05
2018-08-09T18:37:56.170Z,64.69
2018-08-09T18:40:26.858Z,64.54
2018-08-09T18:42:55.763Z,64.69
2018-08-09T18:45:24.761Z,64.80
2018-08-09T18:47:53.761Z,65.01
2018-08-09T18:50:29.868Z,65.46
2018-08-09T18:52:58.841Z,65.47
2018-08-09T18:55:27.755Z,67.21
2018-08-09T18:57:56.630Z,69.44
2018-08-09T19:00:27.323Z,70.87
2018-08-09T19:02:56.335Z,72.71
2018-08-09T19:05:25.427Z,73.40
2018-08-09T19:07:54.384Z,73.59
2018-08-09T19:10:24.913Z,74.03
2018-08-09T19:12:53.799Z,74.21
2018-08-09T19:15:22.585Z,74.58
2018-08-09T19:20:28.333Z,74.24
2018-08-09T19:22:57.721Z,74.54
2018-08-09T19:25:26.573Z,74.27
2018-08-09T19:27:55.473Z,74.58
2018-08-09T19:30:26.017Z,74.88
2018-08-09T19:32:55.003Z,74.96
2018-08-09T19:35:24.141Z,75.44
2018-08-09T19:37:52.961Z,74.67
2018-08-09T19:40:25.549Z,73.22
2018-08-09T19:42:54.497Z,73.28
2018-08-09T19:45:23.337Z,72.97
2018-08-09T19:47:52.160Z,72.44
2018-08-09T19:50:22.369Z,73.52
2018-08-09T19:52:51.249Z,73.36
2018-08-09T19:55:21.727Z,72.33
2018-08-09T19:57:51.200Z,71.95
2018-08-09T20:00:21.665Z,71.93
2018-08-09T20:02:50.827Z,71.31
2018-08-09T20:05:19.681Z,71.36
2018-08-09T20:07:48.555Z,69.88
2018-08-09T20:10:17.500Z,69.34
2018-08-09T20:12:47.181Z,69.51
2018-08-09T20:15:18.268Z,68.73
2018-08-09T20:17:47.199Z,68.44
2018-08-09T20:20:17.476Z,69.24
2018-08-09T20:22:46.250Z,68.53
2018-08-09T20:25:15.591Z,68.84
2018-08-09T20:27:45.229Z,67.91
2018-08-09T20:30:16.009Z,67.83
2018-08-09T20:32:45.721Z,67.03
2018-08-09T20:35:18.853Z,68.29
2018-08-09T20:37:48.291Z,67.78
2018-08-09T20:40:17.925Z,68.15
2018-08-09T20:42:48.006Z,68.33
2018-08-09T20:45:18.395Z,67.63
2018-08-09T20:47:47.191Z,68.32
2018-08-09T20:50:18.342Z,67.92
2018-08-09T20:52:47.867Z,68.43
2018-08-09T20:55:16.774Z,67.93
2018-08-09T20:57:46.416Z,68.22
2018-08-09T21:00:18.338Z,68.95
2018-08-09T21:02:48.670Z,69.96
2018-08-09T21:05:23.475Z,69.98
2018-08-09T21:07:53.527Z,70.49
2018-08-09T21:10:22.743Z,70.60
2018-08-09T21:12:51.559Z,69.56
2018-08-09T21:15:20.987Z,68.45
2018-08-09T21:17:49.852Z,67.23
2018-08-09T21:20:18.745Z,68.21
2018-08-09T21:22:48.500Z,67.59
2018-08-09T21:25:17.520Z,67.61
2018-08-09T21:27:47.005Z,67.78
2018-08-09T21:30:18.246Z,68.02
2018-08-09T21:32:47.560Z,68.75
2018-08-09T21:35:16.358Z,68.17
2018-08-09T21:37:45.494Z,67.66
2018-08-09T21:40:15.209Z,67.64
2018-08-09T21:42:44.125Z,66.82
2018-08-09T21:45:16.351Z,66.85
2018-08-09T21:47:45.111Z,66.25
2018-08-09T21:50:16.200Z,65.23
2018-08-09T21:52:45.078Z,65.05
2018-08-09T21:55:14.604Z,64.72
2018-08-09T21:57:44.557Z,65.49
2018-08-09T22:00:22.099Z,65.06
2018-08-09T22:02:51.160Z,65.23
2018-08-09T22:06:25.000Z,65.56
2018-08-09T22:08:58.982Z,66.78
2018-08-09T22:11:32.961Z,66.57
2018-08-09T22:15:09.756Z,67.57
2018-08-09T22:17:43.739Z,68.69
2018-08-09T22:20:17.748Z,68.60
2018-08-09T22:22:46.674Z,68.83
2018-08-09T22:25:15.485Z,69.17
2018-08-09T22:27:44.332Z,69.58
2018-08-09T22:30:15.629Z,70.00
2018-08-09T22:32:44.460Z,70.91
2018-08-09T22:35:13.217Z,71.50
2018-08-09T22:37:41.939Z,70.90
2018-08-09T22:40:10.877Z,71.42
2018-08-09T22:42:39.697Z,71.53
2018-08-09T22:45:08.617Z,71.70
2018-08-09T22:47:37.360Z,71.83
2018-08-09T22:50:06.157Z,72.39
2018-08-09T22:52:34.921Z,72.38
2018-08-09T22:55:03.856Z,72.27
2018-08-09T22:57:32.557Z,72.87
2018-08-09T23:00:01.356Z,73.86
2018-08-09T23:02:30.173Z,74.13
2018-08-09T23:04:58.866Z,74.05
2018-08-09T23:07:27.785Z,73.94
2018-08-09T23:09:56.541Z,74.53
2018-08-09T23:12:25.359Z,75.19
2018-08-09T23:14:54.064Z,75.80
2018-08-09T23:17:22.840Z,74.92
2018-08-09T23:19:51.514Z,75.59
2018-08-09T23:22:20.337Z,74.83
2018-08-09T23:24:49.047Z,74.69
2018-08-09T23:27:17.729Z,74.67
2018-08-09T23:29:46.598Z,74.57
2018-08-09T23:32:15.440Z,74.56
2018-08-09T23:34:44.294Z,74.66
2018-08-09T23:37:13.142Z,75.08
2018-08-09T23:39:41.917Z,75.09
2018-08-09T23:42:10.707Z,75.32
2018-08-09T23:44:39.369Z,76.86
2018-08-09T23:47:08.233Z,78.33
2018-08-09T23:49:36.972Z,79.58
2018-08-09T23:52:05.977Z,80.95
2018-08-09T23:54:34.995Z,81.99
2018-08-09T23:57:03.707Z,84.18
2018-08-09T23:59:32.513Z,85.08
